sensor_id;sensor_type;location;lat;lon;timestamp;temperature;humidity
26479;DHT22;14163;-26.142;27.992;2023-03-22T00:01:19;26.20;99.90
26479;DHT22;14163;-26.142;27.992;2023-03-22T00:03:49;26.10;99.90
26479;DHT22;14163;-26.142;27.992;2023-03-22T00:06:18;26.10;99.90
26479;DHT22;14163;-26.142;27.992;2023-03-22T00:08:49;26.10;99.90
26479;DHT22;14163;-26.142;27.992;2023-03-22T00:11:18;26.10;99.90
26479;DHT22;14163;-26.142;27.992;2023-03-22T00:13:48;26.00;99.90
26479;DHT22;14163;-26.142;27.992;2023-03-22T00:16:20;26.00;99.90
26479;DHT22;14163;-26.142;27.992;2023-03-22T00:18:49;26.00;99.90
26479;DHT22;14163;-26.142;27.992;2023-03-22T00:21:18;26.00;99.90
26479;DHT22;14163;-26.142;27.992;2023-03-22T00:23:47;25.90;99.90
26479;DHT22;14163;-26.142;27.992;2023-03-22T00:26:17;26.00;99.90
26479;DHT22;14163;-26.142;27.992;2023-03-22T00:28:46;26.00;99.90
26479;DHT22;14163;-26.142;27.992;2023-03-22T00:31:15;26.00;99.90
26479;DHT22;14163;-26.142;27.992;2023-03-22T00:33:47;25.90;99.90
26479;DHT22;14163;-26.142;27.992;2023-03-22T00:36:16;25.90;99.90
26479;DHT22;14163;-26.142;27.992;2023-03-22T00:38:45;26.00;99.90
26479;DHT22;14163;-26.142;27.992;2023-03-22T00:41:15;26.00;99.90
26479;DHT22;14163;-26.142;27.992;2023-03-22T00:43:45;25.90;99.90
26479;DHT22;14163;-26.142;27.992;2023-03-22T00:46:16;25.90;99.90
26479;DHT22;14163;-26.142;27.992;2023-03-22T00:48:47;25.90;99.90
26479;DHT22;14163;-26.142;27.992;2023-03-22T00:51:17;25.80;99.90
26479;DHT22;14163;-26.142;27.992;2023-03-22T00:53:46;25.50;99.90
26479;DHT22;14163;-26.142;27.992;2023-03-22T00:56:16;25.60;99.90
26479;DHT22;14163;-26.142;27.992;2023-03-22T00:58:45;25.60;99.90
26479;DHT22;14163;-26.142;27.992;2023-03-22T01:01:15;25.50;99.90
26479;DHT22;14163;-26.142;27.992;2023-03-22T01:03:46;25.40;99.90
26479;DHT22;14163;-26.142;27.992;2023-03-22T01:06:16;25.50;99.90
26479;DHT22;14163;-26.142;27.992;2023-03-22T01:08:45;25.30;99.90
26479;DHT22;14163;-26.142;27.992;2023-03-22T01:11:16;25.20;99.90
26479;DHT22;14163;-26.142;27.992;2023-03-22T01:13:46;25.00;99.90
26479;DHT22;14163;-26.142;27.992;2023-03-22T01:16:16;25.20;99.90
26479;DHT22;14163;-26.142;27.992;2023-03-22T01:18:47;25.50;99.90
26479;DHT22;14163;-26.142;27.992;2023-03-22T01:21:16;25.40;99.90
26479;DHT22;14163;-26.142;27.992;2023-03-22T01:23:45;25.30;99.90
26479;DHT22;14163;-26.142;27.992;2023-03-22T01:26:14;25.20;99.90
26479;DHT22;14163;-26.142;27.992;2023-03-22T01:28:43;25.20;99.90
26479;DHT22;14163;-26.142;27.992;2023-03-22T01:31:12;25.10;99.90
26479;DHT22;14163;-26.142;27.992;2023-03-22T01:33:41;25.00;99.90
26479;DHT22;14163;-26.142;27.992;2023-03-22T01:36:13;24.70;99.90
26479;DHT22;14163;-26.142;27.992;2023-03-22T01:38:42;24.60;99.90
26479;DHT22;14163;-26.142;27.992;2023-03-22T01:41:11;24.60;99.90
26479;DHT22;14163;-26.142;27.992;2023-03-22T01:43:40;24.60;99.90
26479;DHT22;14163;-26.142;27.992;2023-03-22T01:46:09;24.30;99.90
26479;DHT22;14163;-26.142;27.992;2023-03-22T01:48:40;24.30;99.90
26479;DHT22;14163;-26.142;27.992;2023-03-22T01:51:15;24.40;99.90
26479;DHT22;14163;-26.142;27.992;2023-03-22T01:53:47;24.20;99.90
26479;DHT22;14163;-26.142;27.992;2023-03-22T01:56:17;24.10;99.90
26479;DHT22;14163;-26.142;27.992;2023-03-22T01:58:48;24.20;99.90
26479;DHT22;14163;-26.142;27.992;2023-03-22T02:01:17;24.50;99.90
26479;DHT22;14163;-26.142;27.992;2023-03-22T02:03:48;24.60;99.90
26479;DHT22;14163;-26.142;27.992;2023-03-22T02:06:20;24.70;99.90
26479;DHT22;14163;-26.142;27.992;2023-03-22T02:08:52;24.80;99.90
26479;DHT22;14163;-26.142;27.992;2023-03-22T02:11:28;24.70;99.90
26479;DHT22;14163;-26.142;27.992;2023-03-22T02:17:28;24.70;99.90
26479;DHT22;14163;-26.142;27.992;2023-03-22T02:20:30;24.50;99.90
26479;DHT22;14163;-26.142;27.992;2023-03-22T02:29:39;24.40;99.90
26479;DHT22;14163;-26.142;27.992;2023-03-22T02:32:24;24.40;99.90
26479;DHT22;14163;-26.142;27.992;2023-03-22T02:35:20;24.30;99.90
26479;DHT22;14163;-26.142;27.992;2023-03-22T02:38:16;24.30;99.90
26479;DHT22;14163;-26.142;27.992;2023-03-22T02:40:53;24.30;99.90
26479;DHT22;14163;-26.142;27.992;2023-03-22T02:43:32;24.20;99.90
26479;DHT22;14163;-26.142;27.992;2023-03-22T02:46:07;24.30;99.90
26479;DHT22;14163;-26.142;27.992;2023-03-22T02:48:43;24.40;99.90
26479;DHT22;14163;-26.142;27.992;2023-03-22T02:51:18;24.30;99.90
26479;DHT22;14163;-26.142;27.992;2023-03-22T02:53:53;24.30;99.90
26479;DHT22;14163;-26.142;27.992;2023-03-22T02:56:29;24.30;99.90
26479;DHT22;14163;-26.142;27.992;2023-03-22T02:59:02;24.30;99.90
26479;DHT22;14163;-26.142;27.992;2023-03-22T03:01:35;24.20;99.90
26479;DHT22;14163;-26.142;27.992;2023-03-22T03:04:08;24.10;99.90
26479;DHT22;14163;-26.142;27.992;2023-03-22T03:06:41;24.00;99.90
26479;DHT22;14163;-26.142;27.992;2023-03-22T03:09:13;24.00;99.90
26479;DHT22;14163;-26.142;27.992;2023-03-22T03:11:47;24.00;99.90
26479;DHT22;14163;-26.142;27.992;2023-03-22T03:14:22;24.00;99.90
26479;DHT22;14163;-26.142;27.992;2023-03-22T03:17:03;24.10;99.90
26479;DHT22;14163;-26.142;27.992;2023-03-22T03:19:38;24.10;99.90
26479;DHT22;14163;-26.142;27.992;2023-03-22T03:22:22;24.10;99.90
26479;DHT22;14163;-26.142;27.992;2023-03-22T03:24:58;24.10;99.90
26479;DHT22;14163;-26.142;27.992;2023-03-22T03:27:34;24.10;99.90
26479;DHT22;14163;-26.142;27.992;2023-03-22T03:30:07;24.10;99.90
26479;DHT22;14163;-26.142;27.992;2023-03-22T03:32:43;24.10;99.90
26479;DHT22;14163;-26.142;27.992;2023-03-22T03:35:17;24.00;99.90
26479;DHT22;14163;-26.142;27.992;2023-03-22T03:37:52;23.90;99.90
26479;DHT22;14163;-26.142;27.992;2023-03-22T03:40:26;23.80;99.90
26479;DHT22;14163;-26.142;27.992;2023-03-22T03:43:01;23.90;99.90
26479;DHT22;14163;-26.142;27.992;2023-03-22T03:45:32;24.00;99.90
26479;DHT22;14163;-26.142;27.992;2023-03-22T03:48:05;24.00;99.90
26479;DHT22;14163;-26.142;27.992;2023-03-22T03:50:35;23.90;99.90
26479;DHT22;14163;-26.142;27.992;2023-03-22T03:53:05;23.80;99.90
26479;DHT22;14163;-26.142;27.992;2023-03-22T03:55:34;23.70;99.90
26479;DHT22;14163;-26.142;27.992;2023-03-22T03:58:06;23.80;99.90
26479;DHT22;14163;-26.142;27.992;2023-03-22T04:00:35;23.80;99.90
26479;DHT22;14163;-26.142;27.992;2023-03-22T04:03:05;23.80;99.90
26479;DHT22;14163;-26.142;27.992;2023-03-22T04:05:35;23.70;99.90
26479;DHT22;14163;-26.142;27.992;2023-03-22T04:08:05;23.70;99.90
26479;DHT22;14163;-26.142;27.992;2023-03-22T04:10:34;23.80;99.90
26479;DHT22;14163;-26.142;27.992;2023-03-22T04:13:05;23.80;99.90
26479;DHT22;14163;-26.142;27.992;2023-03-22T04:15:34;23.70;99.90
26479;DHT22;14163;-26.142;27.992;2023-03-22T04:18:03;23.70;99.90
26479;DHT22;14163;-26.142;27.992;2023-03-22T04:20:33;23.70;99.90
26479;DHT22;14163;-26.142;27.992;2023-03-22T04:23:02;23.70;99.90
26479;DHT22;14163;-26.142;27.992;2023-03-22T04:25:32;23.60;99.90
26479;DHT22;14163;-26.142;27.992;2023-03-22T04:28:06;23.60;99.90
26479;DHT22;14163;-26.142;27.992;2023-03-22T04:30:36;23.60;99.90
26479;DHT22;14163;-26.142;27.992;2023-03-22T04:33:07;23.70;99.90
26479;DHT22;14163;-26.142;27.992;2023-03-22T04:35:38;23.70;99.90
26479;DHT22;14163;-26.142;27.992;2023-03-22T04:38:07;23.60;99.90
26479;DHT22;14163;-26.142;27.992;2023-03-22T04:40:36;23.50;99.90
26479;DHT22;14163;-26.142;27.992;2023-03-22T04:43:14;23.50;99.90
26479;DHT22;14163;-26.142;27.992;2023-03-22T04:45:44;23.60;99.90
26479;DHT22;14163;-26.142;27.992;2023-03-22T04:48:14;23.60;99.90
26479;DHT22;14163;-26.142;27.992;2023-03-22T04:50:46;23.50;99.90
26479;DHT22;14163;-26.142;27.992;2023-03-22T04:53:19;23.60;99.90
26479;DHT22;14163;-26.142;27.992;2023-03-22T04:55:53;23.50;99.90
26479;DHT22;14163;-26.142;27.992;2023-03-22T04:58:25;23.50;99.90
26479;DHT22;14163;-26.142;27.992;2023-03-22T05:00:54;23.50;99.90
26479;DHT22;14163;-26.142;27.992;2023-03-22T05:03:25;23.70;99.90
26479;DHT22;14163;-26.142;27.992;2023-03-22T05:05:57;23.90;99.90
26479;DHT22;14163;-26.142;27.992;2023-03-22T05:08:29;24.00;99.90
26479;DHT22;14163;-26.142;27.992;2023-03-22T05:11:03;24.10;99.90
26479;DHT22;14163;-26.142;27.992;2023-03-22T05:13:35;24.10;99.90
26479;DHT22;14163;-26.142;27.992;2023-03-22T05:16:05;23.90;99.90
26479;DHT22;14163;-26.142;27.992;2023-03-22T05:18:35;23.80;99.90
26479;DHT22;14163;-26.142;27.992;2023-03-22T05:21:11;23.80;99.90
26479;DHT22;14163;-26.142;27.992;2023-03-22T05:23:41;23.80;99.90
26479;DHT22;14163;-26.142;27.992;2023-03-22T05:26:11;23.60;99.90
26479;DHT22;14163;-26.142;27.992;2023-03-22T05:28:43;23.70;99.90
26479;DHT22;14163;-26.142;27.992;2023-03-22T05:31:12;23.80;99.90
26479;DHT22;14163;-26.142;27.992;2023-03-22T05:33:43;23.70;99.90
26479;DHT22;14163;-26.142;27.992;2023-03-22T05:36:13;23.90;99.90
26479;DHT22;14163;-26.142;27.992;2023-03-22T05:38:42;23.90;99.90
26479;DHT22;14163;-26.142;27.992;2023-03-22T05:41:12;23.80;99.90
26479;DHT22;14163;-26.142;27.992;2023-03-22T05:43:43;23.70;99.90
26479;DHT22;14163;-26.142;27.992;2023-03-22T05:46:12;23.50;99.90
26479;DHT22;14163;-26.142;27.992;2023-03-22T05:48:42;23.20;99.90
26479;DHT22;14163;-26.142;27.992;2023-03-22T05:51:13;23.40;99.90
26479;DHT22;14163;-26.142;27.992;2023-03-22T05:53:43;23.20;99.90
26479;DHT22;14163;-26.142;27.992;2023-03-22T05:56:14;23.00;99.90
26479;DHT22;14163;-26.142;27.992;2023-03-22T05:58:45;22.70;99.90
26479;DHT22;14163;-26.142;27.992;2023-03-22T06:01:14;22.50;99.90
26479;DHT22;14163;-26.142;27.992;2023-03-22T06:03:43;22.60;99.90
26479;DHT22;14163;-26.142;27.992;2023-03-22T06:06:14;22.80;99.90
26479;DHT22;14163;-26.142;27.992;2023-03-22T06:08:43;23.00;99.90
26479;DHT22;14163;-26.142;27.992;2023-03-22T06:11:13;22.80;99.90
26479;DHT22;14163;-26.142;27.992;2023-03-22T06:13:47;22.60;99.90
26479;DHT22;14163;-26.142;27.992;2023-03-22T06:16:16;22.40;99.90
26479;DHT22;14163;-26.142;27.992;2023-03-22T06:18:45;22.20;99.90
26479;DHT22;14163;-26.142;27.992;2023-03-22T06:21:14;22.30;99.90
26479;DHT22;14163;-26.142;27.992;2023-03-22T06:23:44;22.10;99.90
26479;DHT22;14163;-26.142;27.992;2023-03-22T06:26:13;22.00;99.90
26479;DHT22;14163;-26.142;27.992;2023-03-22T06:28:42;21.90;99.90
26479;DHT22;14163;-26.142;27.992;2023-03-22T06:31:13;21.70;99.90
26479;DHT22;14163;-26.142;27.992;2023-03-22T06:33:43;21.70;99.90
26479;DHT22;14163;-26.142;27.992;2023-03-22T06:36:13;21.60;99.90
26479;DHT22;14163;-26.142;27.992;2023-03-22T06:38:42;21.80;99.90
26479;DHT22;14163;-26.142;27.992;2023-03-22T06:41:11;22.00;99.90
26479;DHT22;14163;-26.142;27.992;2023-03-22T06:43:40;22.20;99.90
26479;DHT22;14163;-26.142;27.992;2023-03-22T06:46:09;22.60;99.90
26479;DHT22;14163;-26.142;27.992;2023-03-22T06:48:41;22.60;99.90
26479;DHT22;14163;-26.142;27.992;2023-03-22T06:51:10;22.70;99.90
26479;DHT22;14163;-26.142;27.992;2023-03-22T06:53:39;22.80;99.90
26479;DHT22;14163;-26.142;27.992;2023-03-22T06:56:09;23.10;99.90
26479;DHT22;14163;-26.142;27.992;2023-03-22T06:58:38;23.00;99.90
26479;DHT22;14163;-26.142;27.992;2023-03-22T07:01:07;23.10;99.90
26479;DHT22;14163;-26.142;27.992;2023-03-22T07:03:37;22.90;99.90
26479;DHT22;14163;-26.142;27.992;2023-03-22T07:06:08;22.80;99.90
26479;DHT22;14163;-26.142;27.992;2023-03-22T07:08:38;22.60;99.90
26479;DHT22;14163;-26.142;27.992;2023-03-22T07:11:07;22.60;99.90
26479;DHT22;14163;-26.142;27.992;2023-03-22T07:13:36;22.60;99.90
26479;DHT22;14163;-26.142;27.992;2023-03-22T07:16:07;22.60;99.90
26479;DHT22;14163;-26.142;27.992;2023-03-22T07:18:36;22.70;99.90
26479;DHT22;14163;-26.142;27.992;2023-03-22T07:21:07;22.80;99.90
26479;DHT22;14163;-26.142;27.992;2023-03-22T07:23:37;22.70;99.90
26479;DHT22;14163;-26.142;27.992;2023-03-22T07:26:06;22.60;99.90
26479;DHT22;14163;-26.142;27.992;2023-03-22T07:28:35;22.80;99.90
26479;DHT22;14163;-26.142;27.992;2023-03-22T07:31:08;22.80;99.90
26479;DHT22;14163;-26.142;27.992;2023-03-22T07:33:38;22.80;99.90
26479;DHT22;14163;-26.142;27.992;2023-03-22T07:36:10;22.80;99.90
26479;DHT22;14163;-26.142;27.992;2023-03-22T07:38:39;22.90;99.90
26479;DHT22;14163;-26.142;27.992;2023-03-22T07:41:08;22.80;99.90
26479;DHT22;14163;-26.142;27.992;2023-03-22T07:43:37;22.70;99.90
26479;DHT22;14163;-26.142;27.992;2023-03-22T07:46:06;22.70;99.90
26479;DHT22;14163;-26.142;27.992;2023-03-22T07:48:35;22.80;99.90
26479;DHT22;14163;-26.142;27.992;2023-03-22T07:51:05;22.70;99.90
26479;DHT22;14163;-26.142;27.992;2023-03-22T07:53:36;22.70;99.90
26479;DHT22;14163;-26.142;27.992;2023-03-22T07:56:06;22.90;99.90
26479;DHT22;14163;-26.142;27.992;2023-03-22T07:58:36;23.10;99.90
26479;DHT22;14163;-26.142;27.992;2023-03-22T08:01:05;23.10;99.90
26479;DHT22;14163;-26.142;27.992;2023-03-22T08:03:35;23.20;99.90
26479;DHT22;14163;-26.142;27.992;2023-03-22T08:06:06;23.30;99.90
26479;DHT22;14163;-26.142;27.992;2023-03-22T08:08:38;23.50;99.90
26479;DHT22;14163;-26.142;27.992;2023-03-22T08:11:07;23.60;99.90
26479;DHT22;14163;-26.142;27.992;2023-03-22T08:13:38;23.70;99.90
26479;DHT22;14163;-26.142;27.992;2023-03-22T08:16:07;23.70;99.90
26479;DHT22;14163;-26.142;27.992;2023-03-22T08:18:37;23.80;99.90
26479;DHT22;14163;-26.142;27.992;2023-03-22T08:21:07;23.90;99.90
26479;DHT22;14163;-26.142;27.992;2023-03-22T08:23:38;24.00;99.90
26479;DHT22;14163;-26.142;27.992;2023-03-22T08:26:07;23.90;99.90
26479;DHT22;14163;-26.142;27.992;2023-03-22T08:28:37;23.90;99.90
26479;DHT22;14163;-26.142;27.992;2023-03-22T08:31:11;24.10;99.90
26479;DHT22;14163;-26.142;27.992;2023-03-22T08:33:40;24.30;99.90
26479;DHT22;14163;-26.142;27.992;2023-03-22T08:36:11;24.30;99.90
26479;DHT22;14163;-26.142;27.992;2023-03-22T08:38:43;24.40;99.90
26479;DHT22;14163;-26.142;27.992;2023-03-22T08:41:12;24.20;99.90
26479;DHT22;14163;-26.142;27.992;2023-03-22T08:43:42;24.20;99.90
26479;DHT22;14163;-26.142;27.992;2023-03-22T08:46:11;24.30;99.90
26479;DHT22;14163;-26.142;27.992;2023-03-22T08:48:40;24.70;99.90
26479;DHT22;14163;-26.142;27.992;2023-03-22T08:51:16;24.90;99.90
26479;DHT22;14163;-26.142;27.992;2023-03-22T08:53:47;25.00;99.90
26479;DHT22;14163;-26.142;27.992;2023-03-22T08:56:16;24.70;99.90
26479;DHT22;14163;-26.142;27.992;2023-03-22T08:58:46;24.50;99.90
26479;DHT22;14163;-26.142;27.992;2023-03-22T09:01:16;24.50;99.90
26479;DHT22;14163;-26.142;27.992;2023-03-22T09:03:46;24.40;99.90
26479;DHT22;14163;-26.142;27.992;2023-03-22T09:06:16;24.50;99.90
26479;DHT22;14163;-26.142;27.992;2023-03-22T09:08:46;24.50;99.90
26479;DHT22;14163;-26.142;27.992;2023-03-22T09:11:18;24.70;99.90
26479;DHT22;14163;-26.142;27.992;2023-03-22T09:13:48;25.10;99.90
26479;DHT22;14163;-26.142;27.992;2023-03-22T09:16:17;25.10;99.90
26479;DHT22;14163;-26.142;27.992;2023-03-22T09:18:46;25.10;99.90
26479;DHT22;14163;-26.142;27.992;2023-03-22T09:21:16;24.80;99.90
26479;DHT22;14163;-26.142;27.992;2023-03-22T09:23:47;24.70;99.90
26479;DHT22;14163;-26.142;27.992;2023-03-22T09:26:16;25.10;99.90
26479;DHT22;14163;-26.142;27.992;2023-03-22T09:28:45;25.30;99.90
26479;DHT22;14163;-26.142;27.992;2023-03-22T09:31:14;25.50;99.90
26479;DHT22;14163;-26.142;27.992;2023-03-22T09:33:43;25.80;99.90
26479;DHT22;14163;-26.142;27.992;2023-03-22T09:36:13;26.10;99.90
26479;DHT22;14163;-26.142;27.992;2023-03-22T09:38:42;26.10;99.90
26479;DHT22;14163;-26.142;27.992;2023-03-22T09:41:17;25.90;99.90
26479;DHT22;14163;-26.142;27.992;2023-03-22T09:43:50;25.90;99.90
26479;DHT22;14163;-26.142;27.992;2023-03-22T09:46:28;26.00;99.90
26479;DHT22;14163;-26.142;27.992;2023-03-22T09:49:00;26.00;99.90
26479;DHT22;14163;-26.142;27.992;2023-03-22T09:51:38;25.80;99.90
26479;DHT22;14163;-26.142;27.992;2023-03-22T09:54:13;25.90;99.90
26479;DHT22;14163;-26.142;27.992;2023-03-22T09:56:50;26.20;99.90
26479;DHT22;14163;-26.142;27.992;2023-03-22T09:59:24;26.60;99.90
26479;DHT22;14163;-26.142;27.992;2023-03-22T10:01:58;26.70;99.90
26479;DHT22;14163;-26.142;27.992;2023-03-22T10:04:50;26.30;99.90
26479;DHT22;14163;-26.142;27.992;2023-03-22T10:07:26;26.30;99.90
26479;DHT22;14163;-26.142;27.992;2023-03-22T10:10:06;26.40;99.90
26479;DHT22;14163;-26.142;27.992;2023-03-22T10:12:41;26.40;99.90
26479;DHT22;14163;-26.142;27.992;2023-03-22T10:15:14;26.60;99.90
26479;DHT22;14163;-26.142;27.992;2023-03-22T10:17:45;26.70;99.90
26479;DHT22;14163;-26.142;27.992;2023-03-22T10:20:27;26.80;99.90
26479;DHT22;14163;-26.142;27.992;2023-03-22T10:22:58;26.90;99.90
26479;DHT22;14163;-26.142;27.992;2023-03-22T10:25:33;27.20;99.90
26479;DHT22;14163;-26.142;27.992;2023-03-22T10:28:13;27.50;99.90
26479;DHT22;14163;-26.142;27.992;2023-03-22T10:30:46;27.70;99.90
26479;DHT22;14163;-26.142;27.992;2023-03-22T10:33:32;27.80;99.90
26479;DHT22;14163;-26.142;27.992;2023-03-22T10:36:03;27.90;99.90
26479;DHT22;14163;-26.142;27.992;2023-03-22T10:38:36;27.90;99.90
26479;DHT22;14163;-26.142;27.992;2023-03-22T10:41:07;28.10;99.90
26479;DHT22;14163;-26.142;27.992;2023-03-22T10:43:40;28.20;99.90
26479;DHT22;14163;-26.142;27.992;2023-03-22T10:46:14;28.20;99.90
26479;DHT22;14163;-26.142;27.992;2023-03-22T10:48:46;28.40;99.90
26479;DHT22;14163;-26.142;27.992;2023-03-22T10:51:23;28.70;99.90
26479;DHT22;14163;-26.142;27.992;2023-03-22T10:53:54;29.20;99.90
26479;DHT22;14163;-26.142;27.992;2023-03-22T10:56:24;29.70;99.90
26479;DHT22;14163;-26.142;27.992;2023-03-22T10:58:55;31.00;99.90
26479;DHT22;14163;-26.142;27.992;2023-03-22T11:01:27;31.00;98.90
26479;DHT22;14163;-26.142;27.992;2023-03-22T11:03:59;31.10;96.90
26479;DHT22;14163;-26.142;27.992;2023-03-22T11:06:38;31.20;96.50
26479;DHT22;14163;-26.142;27.992;2023-03-22T11:09:15;31.80;95.30
26479;DHT22;14163;-26.142;27.992;2023-03-22T11:11:49;32.30;93.40
26479;DHT22;14163;-26.142;27.992;2023-03-22T11:14:25;33.40;92.00
26479;DHT22;14163;-26.142;27.992;2023-03-22T11:16:56;34.90;88.70
26479;DHT22;14163;-26.142;27.992;2023-03-22T11:19:30;36.10;82.70
26479;DHT22;14163;-26.142;27.992;2023-03-22T11:22:03;36.50;75.50
26479;DHT22;14163;-26.142;27.992;2023-03-22T11:24:35;36.20;73.60
26479;DHT22;14163;-26.142;27.992;2023-03-22T11:27:06;36.00;71.90
26479;DHT22;14163;-26.142;27.992;2023-03-22T11:29:44;35.40;71.70
26479;DHT22;14163;-26.142;27.992;2023-03-22T11:32:24;36.30;72.10
26479;DHT22;14163;-26.142;27.992;2023-03-22T11:35:01;35.80;69.40
26479;DHT22;14163;-26.142;27.992;2023-03-22T11:37:39;35.80;68.20
26479;DHT22;14163;-26.142;27.992;2023-03-22T11:40:14;35.80;69.80
26479;DHT22;14163;-26.142;27.992;2023-03-22T11:42:43;35.50;67.80
26479;DHT22;14163;-26.142;27.992;2023-03-22T11:45:26;34.80;68.70
26479;DHT22;14163;-26.142;27.992;2023-03-22T11:48:01;35.20;68.50
26479;DHT22;14163;-26.142;27.992;2023-03-22T11:50:31;36.50;66.50
26479;DHT22;14163;-26.142;27.992;2023-03-22T11:53:03;36.50;64.90
26479;DHT22;14163;-26.142;27.992;2023-03-22T11:55:35;37.10;64.30
26479;DHT22;14163;-26.142;27.992;2023-03-22T11:58:05;37.10;64.10
26479;DHT22;14163;-26.142;27.992;2023-03-22T12:00:37;36.90;64.00
26479;DHT22;14163;-26.142;27.992;2023-03-22T12:03:14;36.60;62.80
26479;DHT22;14163;-26.142;27.992;2023-03-22T12:05:45;37.10;62.80
26479;DHT22;14163;-26.142;27.992;2023-03-22T12:08:20;36.80;63.90
26479;DHT22;14163;-26.142;27.992;2023-03-22T12:10:56;37.20;61.90
26479;DHT22;14163;-26.142;27.992;2023-03-22T12:13:29;36.90;62.40
26479;DHT22;14163;-26.142;27.992;2023-03-22T12:16:05;38.10;63.40
26479;DHT22;14163;-26.142;27.992;2023-03-22T12:18:37;39.40;62.30
26479;DHT22;14163;-26.142;27.992;2023-03-22T12:21:09;40.10;59.80
26479;DHT22;14163;-26.142;27.992;2023-03-22T12:23:39;39.40;58.10
26479;DHT22;14163;-26.142;27.992;2023-03-22T12:26:14;38.90;58.10
26479;DHT22;14163;-26.142;27.992;2023-03-22T12:28:45;38.60;57.30
26479;DHT22;14163;-26.142;27.992;2023-03-22T12:31:19;37.50;59.10
26479;DHT22;14163;-26.142;27.992;2023-03-22T12:33:48;37.00;58.50
26479;DHT22;14163;-26.142;27.992;2023-03-22T12:36:18;36.60;59.90
26479;DHT22;14163;-26.142;27.992;2023-03-22T12:38:48;37.10;59.40
26479;DHT22;14163;-26.142;27.992;2023-03-22T12:41:24;36.10;59.00
26479;DHT22;14163;-26.142;27.992;2023-03-22T12:43:55;34.80;61.10
26479;DHT22;14163;-26.142;27.992;2023-03-22T12:46:30;33.90;63.10
26479;DHT22;14163;-26.142;27.992;2023-03-22T12:49:04;33.90;63.40
26479;DHT22;14163;-26.142;27.992;2023-03-22T12:51:34;34.10;64.60
26479;DHT22;14163;-26.142;27.992;2023-03-22T12:54:05;35.00;65.00
26479;DHT22;14163;-26.142;27.992;2023-03-22T12:56:38;36.50;61.80
26479;DHT22;14163;-26.142;27.992;2023-03-22T12:59:15;36.60;61.30
26479;DHT22;14163;-26.142;27.992;2023-03-22T13:01:51;36.30;61.60
26479;DHT22;14163;-26.142;27.992;2023-03-22T13:04:31;35.40;61.40
26479;DHT22;14163;-26.142;27.992;2023-03-22T13:07:13;35.40;61.20
26479;DHT22;14163;-26.142;27.992;2023-03-22T13:09:43;34.80;62.20
26479;DHT22;14163;-26.142;27.992;2023-03-22T13:12:31;34.80;63.50
26479;DHT22;14163;-26.142;27.992;2023-03-22T13:15:28;34.80;63.00
26479;DHT22;14163;-26.142;27.992;2023-03-22T13:18:00;34.10;64.60
26479;DHT22;14163;-26.142;27.992;2023-03-22T13:20:32;33.60;65.40
26479;DHT22;14163;-26.142;27.992;2023-03-22T13:23:10;33.40;64.50
26479;DHT22;14163;-26.142;27.992;2023-03-22T13:25:59;33.10;65.70
26479;DHT22;14163;-26.142;27.992;2023-03-22T13:28:29;33.30;66.20
26479;DHT22;14163;-26.142;27.992;2023-03-22T13:31:03;33.40;65.60
26479;DHT22;14163;-26.142;27.992;2023-03-22T13:33:35;33.10;65.50
26479;DHT22;14163;-26.142;27.992;2023-03-22T13:36:07;32.50;66.30
26479;DHT22;14163;-26.142;27.992;2023-03-22T13:38:54;32.00;66.80
26479;DHT22;14163;-26.142;27.992;2023-03-22T13:41:27;31.70;65.70
26479;DHT22;14163;-26.142;27.992;2023-03-22T13:43:58;31.50;66.00
26479;DHT22;14163;-26.142;27.992;2023-03-22T13:46:49;31.30;65.50
26479;DHT22;14163;-26.142;27.992;2023-03-22T13:49:50;31.30;66.50
26479;DHT22;14163;-26.142;27.992;2023-03-22T13:52:39;31.50;66.70
26479;DHT22;14163;-26.142;27.992;2023-03-22T13:55:40;31.90;66.20
26479;DHT22;14163;-26.142;27.992;2023-03-22T13:58:10;31.70;66.50
26479;DHT22;14163;-26.142;27.992;2023-03-22T14:00:55;32.10;66.50
26479;DHT22;14163;-26.142;27.992;2023-03-22T16:05:37;25.80;69.20
26479;DHT22;14163;-26.142;27.992;2023-03-22T16:08:07;25.80;70.00
26479;DHT22;14163;-26.142;27.992;2023-03-22T16:10:44;26.10;69.00
26479;DHT22;14163;-26.142;27.992;2023-03-22T16:13:18;26.60;68.60
26479;DHT22;14163;-26.142;27.992;2023-03-22T16:15:49;27.00;68.10
26479;DHT22;14163;-26.142;27.992;2023-03-22T16:18:21;27.40;67.70
26479;DHT22;14163;-26.142;27.992;2023-03-22T16:20:52;27.70;67.40
26479;DHT22;14163;-26.142;27.992;2023-03-22T16:23:22;27.90;66.70
26479;DHT22;14163;-26.142;27.992;2023-03-22T16:25:53;27.80;65.90
26479;DHT22;14163;-26.142;27.992;2023-03-22T16:28:22;27.60;65.90
26479;DHT22;14163;-26.142;27.992;2023-03-22T16:30:51;27.60;66.70
26479;DHT22;14163;-26.142;27.992;2023-03-22T16:33:20;27.80;66.50
26479;DHT22;14163;-26.142;27.992;2023-03-22T16:35:51;27.90;66.10
26479;DHT22;14163;-26.142;27.992;2023-03-22T16:38:20;28.10;65.70
26479;DHT22;14163;-26.142;27.992;2023-03-22T16:40:54;27.90;65.20
26479;DHT22;14163;-26.142;27.992;2023-03-22T16:43:23;27.90;65.20
26479;DHT22;14163;-26.142;27.992;2023-03-22T16:45:53;27.90;64.90
26479;DHT22;14163;-26.142;27.992;2023-03-22T16:48:22;27.80;65.30
26479;DHT22;14163;-26.142;27.992;2023-03-22T16:50:54;27.90;65.40
26479;DHT22;14163;-26.142;27.992;2023-03-22T16:53:23;27.70;65.80
26479;DHT22;14163;-26.142;27.992;2023-03-22T16:55:54;27.70;66.20
26479;DHT22;14163;-26.142;27.992;2023-03-22T16:58:23;27.60;66.60
26479;DHT22;14163;-26.142;27.992;2023-03-22T17:00:53;27.50;67.30
26479;DHT22;14163;-26.142;27.992;2023-03-22T17:03:23;27.40;68.00
26479;DHT22;14163;-26.142;27.992;2023-03-22T17:05:53;27.20;68.80
26479;DHT22;14163;-26.142;27.992;2023-03-22T17:08:24;27.00;69.60
26479;DHT22;14163;-26.142;27.992;2023-03-22T17:10:53;27.00;70.30
26479;DHT22;14163;-26.142;27.992;2023-03-22T17:13:22;26.90;70.90
26479;DHT22;14163;-26.142;27.992;2023-03-22T17:15:52;26.80;71.60
26479;DHT22;14163;-26.142;27.992;2023-03-22T17:18:22;26.70;72.00
26479;DHT22;14163;-26.142;27.992;2023-03-22T17:20:51;26.80;72.50
26479;DHT22;14163;-26.142;27.992;2023-03-22T17:23:22;27.00;73.40
26479;DHT22;14163;-26.142;27.992;2023-03-22T17:25:51;26.90;73.10
26479;DHT22;14163;-26.142;27.992;2023-03-22T17:28:20;27.10;73.40
26479;DHT22;14163;-26.142;27.992;2023-03-22T17:30:51;27.10;73.50
26479;DHT22;14163;-26.142;27.992;2023-03-22T17:33:20;27.30;73.30
26479;DHT22;14163;-26.142;27.992;2023-03-22T17:35:49;27.20;73.80
26479;DHT22;14163;-26.142;27.992;2023-03-22T17:38:19;27.20;73.70
26479;DHT22;14163;-26.142;27.992;2023-03-22T17:40:50;27.20;73.90
26479;DHT22;14163;-26.142;27.992;2023-03-22T17:43:19;27.20;74.10
26479;DHT22;14163;-26.142;27.992;2023-03-22T17:45:48;27.30;74.20